createdAt,value
2018-03-26T00:01:30.710Z,2.20
2018-03-26T00:04:36.452Z,2.00
2018-03-26T00:07:40.372Z,2.00
2018-03-26T00:10:46.793Z,2.10
2018-03-26T00:13:53.184Z,2.00
2018-03-26T00:16:56.752Z,1.90
2018-03-26T00:20:04.771Z,1.90
2018-03-26T00:23:08.530Z,1.90
2018-03-26T00:26:14.252Z,2.00
2018-03-26T00:29:17.719Z,1.90
2018-03-26T00:32:23.380Z,1.90
2018-03-26T00:35:27.257Z,1.80
2018-03-26T00:38:30.809Z,1.70
2018-03-26T00:41:35.508Z,1.70
2018-03-26T00:44:40.667Z,1.60
2018-03-26T00:47:44.578Z,1.70
2018-03-26T00:50:51.427Z,1.60
2018-03-26T00:53:54.824Z,1.60
2018-03-26T00:56:59.901Z,1.60
2018-03-26T01:00:05.944Z,1.60
2018-03-26T01:03:11.502Z,1.40
2018-03-26T01:06:14.887Z,1.40
2018-03-26T01:09:20.380Z,1.30
2018-03-26T01:12:24.240Z,1.30
2018-03-26T01:15:28.959Z,1.30
2018-03-26T01:18:33.300Z,1.30
2018-03-26T01:21:36.784Z,1.30
2018-03-26T01:24:40.224Z,1.30
2018-03-26T01:27:43.808Z,1.30
2018-03-26T01:30:47.260Z,1.20
2018-03-26T01:33:51.363Z,1.30
2018-03-26T01:36:58.001Z,1.20
2018-03-26T01:40:02.712Z,1.20
2018-03-26T01:43:09.285Z,1.20
2018-03-26T01:46:13.899Z,1.20
2018-03-26T01:49:17.458Z,1.20
2018-03-26T01:52:22.501Z,1.20
2018-03-26T01:55:27.651Z,1.10
2018-03-26T01:58:32.752Z,1.10
2018-03-26T02:01:38.078Z,1.20
2018-03-26T02:04:41.704Z,1.20
2018-03-26T02:07:45.513Z,1.10
2018-03-26T02:10:50.564Z,1.20
2018-03-26T02:13:54.662Z,1.10
2018-03-26T02:17:02.197Z,1.20
2018-03-26T02:20:06.675Z,1.20
2018-03-26T02:23:12.982Z,1.20
2018-03-26T02:26:18.532Z,1.20
2018-03-26T02:29:25.728Z,1.10
2018-03-26T02:32:30.154Z,1.00
2018-03-26T02:35:35.687Z,1.00
2018-03-26T02:38:40.452Z,1.00
2018-03-26T02:41:46.481Z,1.00
2018-03-26T02:44:53.743Z,1.00
2018-03-26T02:47:57.876Z,1.00
2018-03-26T02:51:03.298Z,1.00
2018-03-26T02:54:11.061Z,1.00
2018-03-26T02:57:14.532Z,1.00
2018-03-26T03:00:22.228Z,1.00
2018-03-26T03:03:28.744Z,1.00
2018-03-26T04:55:02.428Z,1.80
2018-03-26T04:58:05.755Z,1.80
2018-03-26T05:01:09.108Z,1.80
2018-03-26T05:04:12.673Z,1.90
2018-03-26T05:07:16.128Z,1.90
2018-03-26T05:10:19.478Z,1.90
2018-03-26T05:13:22.904Z,2.00
2018-03-26T05:16:26.326Z,2.00
2018-03-26T05:19:29.725Z,2.00
2018-03-26T05:22:33.072Z,2.00
2018-03-26T05:25:36.417Z,1.90
2018-03-26T05:28:39.753Z,1.90
2018-03-26T05:31:43.741Z,1.90
2018-03-26T05:34:47.724Z,1.90
2018-03-26T05:37:51.079Z,1.90
2018-03-26T05:40:54.432Z,1.90
2018-03-26T05:43:57.778Z,1.90
2018-03-26T05:47:01.791Z,2.00
2018-03-26T05:50:05.207Z,2.00
2018-03-26T05:53:09.292Z,2.00
2018-03-26T05:56:12.645Z,2.00
2018-03-26T05:59:16.033Z,2.00
2018-03-26T06:02:19.433Z,2.00
2018-03-26T06:05:22.803Z,2.10
2018-03-26T06:08:26.145Z,2.10
2018-03-26T06:11:29.569Z,2.10
2018-03-26T06:14:32.943Z,2.10
2018-03-26T06:17:36.389Z,2.10
2018-03-26T06:20:39.786Z,2.20
2018-03-26T06:23:43.213Z,2.20
2018-03-26T06:26:47.906Z,2.20
2018-03-26T06:29:51.235Z,2.20
2018-03-26T06:32:54.600Z,2.20
2018-03-26T06:35:58.117Z,2.30
2018-03-26T06:39:01.461Z,2.40
2018-03-26T06:42:05.548Z,2.40
2018-03-26T06:45:08.945Z,2.40
2018-03-26T06:48:12.295Z,2.40
2018-03-26T06:51:15.647Z,2.40
2018-03-26T06:54:18.964Z,2.40
2018-03-26T06:57:22.306Z,2.40
2018-03-26T07:00:25.651Z,2.50
2018-03-26T07:03:28.983Z,2.50
2018-03-26T07:06:32.295Z,2.50
2018-03-26T07:09:35.638Z,2.70
2018-03-26T07:12:39.016Z,2.80
2018-03-26T07:15:42.339Z,2.90
2018-03-26T07:18:45.699Z,3.00
2018-03-26T07:21:49.012Z,3.10
2018-03-26T07:24:52.348Z,3.10
2018-03-26T07:27:55.688Z,3.20
2018-03-26T07:30:59.765Z,3.30
2018-03-26T07:34:03.096Z,3.30
2018-03-26T07:37:06.475Z,3.30
2018-03-26T07:40:09.798Z,3.30
2018-03-26T07:43:13.123Z,3.30
2018-03-26T07:46:16.451Z,3.40
2018-03-26T07:49:19.785Z,3.40
2018-03-26T07:52:23.128Z,3.50
2018-03-26T07:55:26.453Z,3.60
2018-03-26T07:58:29.847Z,3.70
2018-03-26T08:01:33.184Z,3.70
2018-03-26T08:04:36.518Z,3.80
2018-03-26T08:07:39.828Z,3.90
2018-03-26T08:10:43.190Z,3.80
2018-03-26T08:13:46.509Z,3.80
2018-03-26T08:16:49.841Z,3.90
2018-03-26T08:19:53.152Z,4.00
2018-03-26T08:22:56.478Z,4.00
2018-03-26T08:25:59.799Z,4.10
2018-03-26T08:29:03.134Z,4.00
2018-03-26T08:32:06.463Z,4.10
2018-03-26T08:35:09.781Z,4.10
2018-03-26T08:38:13.112Z,4.10
2018-03-26T08:41:16.420Z,4.20
2018-03-26T08:44:19.749Z,4.20
2018-03-26T08:47:23.059Z,4.30
2018-03-26T08:50:26.386Z,4.40
2018-03-26T08:53:29.717Z,4.40
2018-03-26T08:56:33.042Z,4.50
2018-03-26T08:59:36.351Z,4.60
2018-03-26T09:02:39.676Z,4.70
2018-03-26T09:05:43.029Z,4.60
2018-03-26T09:08:46.316Z,4.60
2018-03-26T09:11:49.627Z,4.60
2018-03-26T09:14:53.048Z,4.80
2018-03-26T09:17:56.582Z,4.80
2018-03-26T09:20:59.907Z,4.90
2018-03-26T09:24:04.000Z,4.80
2018-03-26T09:27:07.299Z,4.80
2018-03-26T09:30:11.397Z,5.00
2018-03-26T09:33:14.710Z,4.90
2018-03-26T09:36:18.041Z,5.10
2018-03-26T09:39:21.358Z,5.20
2018-03-26T09:42:24.696Z,5.30
2018-03-26T09:45:28.024Z,5.30
2018-03-26T09:48:31.342Z,5.30
2018-03-26T09:51:34.642Z,5.20
2018-03-26T09:54:37.972Z,5.20
2018-03-26T09:57:41.282Z,5.10
2018-03-26T10:00:49.442Z,5.20
2018-03-26T10:03:52.711Z,5.20
2018-03-26T10:06:56.032Z,5.20
2018-03-26T10:09:59.391Z,5.20
2018-03-26T10:13:03.486Z,5.10
2018-03-26T10:16:06.829Z,5.10
2018-03-26T10:19:10.183Z,5.10
2018-03-26T10:22:13.491Z,5.00
2018-03-26T10:25:16.849Z,5.00
2018-03-26T10:28:20.994Z,5.10
2018-03-26T10:31:24.317Z,5.20
2018-03-26T10:34:28.446Z,5.40
2018-03-26T10:37:31.775Z,5.40
2018-03-26T10:40:35.074Z,5.50
2018-03-26T10:43:38.394Z,5.70
2018-03-26T10:46:41.730Z,5.90
2018-03-26T10:49:45.374Z,6.00
2018-03-26T10:52:48.721Z,6.10
2018-03-26T10:55:52.074Z,6.00
2018-03-26T10:58:55.628Z,5.90
2018-03-26T11:01:58.944Z,5.90
2018-03-26T11:05:02.270Z,5.80
2018-03-26T11:08:05.584Z,5.80
2018-03-26T11:11:08.913Z,5.80
2018-03-26T11:14:12.214Z,5.80
2018-03-26T11:17:15.538Z,5.80
2018-03-26T11:20:18.847Z,5.90
2018-03-26T11:23:22.173Z,6.00
2018-03-26T11:26:25.507Z,6.10
2018-03-26T11:29:28.807Z,6.20
2018-03-26T11:32:32.131Z,6.20
2018-03-26T11:35:35.436Z,6.20
2018-03-26T11:38:38.763Z,6.10
2018-03-26T11:41:42.862Z,6.30
2018-03-26T11:44:46.175Z,6.20
2018-03-26T11:47:50.252Z,6.50
2018-03-26T11:50:53.579Z,6.50
2018-03-26T11:53:57.658Z,6.60
2018-03-26T11:57:00.977Z,6.60
2018-03-26T12:00:04.283Z,6.60
2018-03-26T12:03:07.620Z,6.50
2018-03-26T12:06:10.922Z,6.50
2018-03-26T12:09:14.240Z,6.40
2018-03-26T12:12:17.542Z,6.60
2018-03-26T12:15:20.872Z,6.50
2018-03-26T12:18:24.987Z,6.50
2018-03-26T12:21:29.065Z,6.50
2018-03-26T12:24:49.858Z,6.50
2018-03-26T12:28:10.727Z,6.50
2018-03-26T12:31:14.820Z,6.50
2018-03-26T12:34:35.590Z,6.40
2018-03-26T12:37:39.747Z,6.40
2018-03-26T12:40:57.623Z,6.40
2018-03-26T12:44:00.959Z,6.40
2018-03-26T12:47:04.286Z,6.40
2018-03-26T12:50:08.387Z,6.40
2018-03-26T12:53:11.715Z,6.40
2018-03-26T12:56:15.055Z,6.40
2018-03-26T12:59:18.367Z,6.40
2018-03-26T13:02:36.549Z,6.30
2018-03-26T13:05:39.917Z,6.30
2018-03-26T13:08:43.255Z,6.20
2018-03-26T13:11:46.598Z,6.30
2018-03-26T13:14:49.937Z,6.30
2018-03-26T13:17:53.259Z,6.40
2018-03-26T13:20:56.587Z,6.50
2018-03-26T13:23:59.932Z,6.60
2018-03-26T13:27:03.600Z,6.70
2018-03-26T13:30:06.948Z,6.80
2018-03-26T13:33:10.251Z,6.90
2018-03-26T13:36:13.583Z,6.90
2018-03-26T13:39:16.891Z,7.00
2018-03-26T13:42:20.228Z,7.10
2018-03-26T13:45:23.539Z,7.20
2018-03-26T13:48:26.857Z,7.30
2018-03-26T13:51:30.154Z,7.30
2018-03-26T13:54:33.483Z,7.50
2018-03-26T13:57:36.787Z,7.40
2018-03-26T14:00:40.868Z,7.40
2018-03-26T14:03:44.207Z,7.30
2018-03-26T14:06:48.263Z,7.40
2018-03-26T14:10:09.353Z,7.40
2018-03-26T14:13:30.287Z,7.30
2018-03-26T14:16:51.231Z,7.30
2018-03-26T14:19:54.538Z,7.20
2018-03-26T14:22:58.630Z,7.20
2018-03-26T14:26:01.955Z,7.10
2018-03-26T14:29:06.058Z,7.20
2018-03-26T14:32:09.379Z,7.20
2018-03-26T14:35:48.174Z,7.30
2018-03-26T14:38:51.491Z,7.40
2018-03-26T14:41:55.687Z,7.40
2018-03-26T14:44:58.991Z,7.30
2018-03-26T14:48:02.328Z,7.30
2018-03-26T14:51:05.658Z,7.40
2018-03-26T14:54:08.955Z,7.40
2018-03-26T14:57:12.275Z,7.40
2018-03-26T15:00:16.844Z,7.50
2018-03-26T15:03:20.155Z,7.50
2018-03-26T15:06:23.471Z,7.60
2018-03-26T15:09:26.786Z,7.60
2018-03-26T15:12:30.094Z,7.60
2018-03-26T15:15:33.409Z,7.40
2018-03-26T15:18:37.470Z,7.20
2018-03-26T15:21:40.787Z,7.20
2018-03-26T15:24:44.103Z,7.20
2018-03-26T15:27:48.183Z,7.30
2018-03-26T15:30:51.487Z,7.20
2018-03-26T15:33:54.823Z,7.20
2018-03-26T15:36:58.882Z,6.90
2018-03-26T15:40:02.197Z,6.90
2018-03-26T15:43:05.489Z,6.90
2018-03-26T15:46:08.794Z,6.80
2018-03-26T15:49:12.094Z,6.70
2018-03-26T15:52:15.402Z,6.70
2018-03-26T15:55:19.474Z,6.60
2018-03-26T15:58:22.792Z,6.60
2018-03-26T16:01:26.086Z,6.60
2018-03-26T16:04:29.403Z,6.50
2018-03-26T16:07:32.699Z,6.40
2018-03-26T16:10:36.007Z,6.30
2018-03-26T16:13:40.077Z,6.30
2018-03-26T16:16:43.387Z,6.30
2018-03-26T16:19:46.699Z,6.30
2018-03-26T16:22:49.995Z,6.20
2018-03-26T16:25:53.336Z,6.20
2018-03-26T16:28:56.642Z,6.20
2018-03-26T16:31:59.953Z,6.20
2018-03-26T16:35:03.420Z,6.20
2018-03-26T16:38:06.737Z,6.10
2018-03-26T16:41:10.039Z,6.10
2018-03-26T16:44:13.359Z,6.00
2018-03-26T16:47:16.694Z,6.00
2018-03-26T16:50:19.994Z,5.90
2018-03-26T16:53:23.307Z,5.90
2018-03-26T16:56:26.614Z,5.80
2018-03-26T16:59:29.929Z,5.70
2018-03-26T17:02:33.230Z,5.70
2018-03-26T17:05:36.550Z,5.60
2018-03-26T17:08:39.879Z,5.60
2018-03-26T17:11:43.186Z,5.60
2018-03-26T17:14:46.503Z,5.40
2018-03-26T17:17:49.818Z,5.40
2018-03-26T17:20:53.143Z,5.30
2018-03-26T17:23:57.209Z,5.20
2018-03-26T17:27:00.527Z,5.20
2018-03-26T17:30:03.819Z,5.30
2018-03-26T17:33:07.152Z,5.10
2018-03-26T17:36:11.255Z,5.10
2018-03-26T17:39:15.315Z,5.00
2018-03-26T17:42:18.627Z,5.00
2018-03-26T17:45:22.042Z,4.90
2018-03-26T17:48:26.035Z,4.80
2018-03-26T17:51:29.359Z,4.80
2018-03-26T17:54:32.690Z,4.80
2018-03-26T17:57:35.994Z,4.80
2018-03-26T18:00:39.308Z,4.70
2018-03-26T18:03:42.642Z,4.70
2018-03-26T18:06:45.955Z,4.60
2018-03-26T18:09:50.048Z,4.60
2018-03-26T18:12:53.363Z,4.60
2018-03-26T18:15:56.731Z,4.50
2018-03-26T18:19:00.039Z,4.50
2018-03-26T18:22:03.348Z,4.40
2018-03-26T18:25:06.686Z,4.40
2018-03-26T18:28:10.006Z,4.40
2018-03-26T18:31:13.339Z,4.30
2018-03-26T18:34:16.644Z,4.30
2018-03-26T18:37:19.967Z,4.40
2018-03-26T18:40:23.338Z,4.30
2018-03-26T18:43:26.662Z,4.30
2018-03-26T18:46:30.005Z,4.20
2018-03-26T18:49:33.335Z,4.30
2018-03-26T18:52:37.435Z,4.10
2018-03-26T18:55:40.751Z,4.10
2018-03-26T18:58:44.079Z,4.10
2018-03-26T19:01:47.388Z,4.10
2018-03-26T19:04:50.731Z,4.00
2018-03-26T19:07:54.051Z,4.20
2018-03-26T19:10:57.379Z,4.10
2018-03-26T19:14:00.736Z,4.10
2018-03-26T19:17:04.846Z,4.10
2018-03-26T19:20:08.927Z,4.10
2018-03-26T19:23:12.269Z,4.10
2018-03-26T19:26:15.603Z,4.10
2018-03-26T19:29:18.943Z,4.10
2018-03-26T19:32:22.313Z,4.20
2018-03-26T19:35:25.651Z,4.20
2018-03-26T19:38:28.991Z,4.20
2018-03-26T19:41:32.325Z,4.20
2018-03-26T19:44:35.638Z,4.20
2018-03-26T19:47:38.980Z,4.10
2018-03-26T19:50:42.306Z,4.10
2018-03-26T19:53:45.619Z,4.00
2018-03-26T19:56:49.740Z,4.00
2018-03-26T19:59:53.823Z,4.00
2018-03-26T20:02:57.151Z,4.00
2018-03-26T20:06:00.496Z,4.00
2018-03-26T20:09:03.827Z,4.00
2018-03-26T20:12:07.125Z,4.10
2018-03-26T20:15:10.446Z,4.10
2018-03-26T20:18:14.535Z,4.10
2018-03-26T20:21:17.848Z,4.10
2018-03-26T20:24:21.951Z,4.10
2018-03-26T20:27:25.312Z,4.10
2018-03-26T20:30:28.590Z,4.10
2018-03-26T20:33:31.916Z,4.10
2018-03-26T20:36:35.227Z,4.10
2018-03-26T20:39:38.546Z,4.00
2018-03-26T20:42:41.851Z,4.00
2018-03-26T20:45:45.934Z,3.90
2018-03-26T20:48:49.255Z,3.90
2018-03-26T20:51:52.574Z,3.90
2018-03-26T20:54:55.899Z,3.80
2018-03-26T20:57:59.227Z,3.80
2018-03-26T21:01:02.530Z,3.80
2018-03-26T21:04:06.611Z,3.70
2018-03-26T21:07:09.967Z,3.70
2018-03-26T21:10:13.284Z,3.60
2018-03-26T21:13:16.619Z,3.60
2018-03-26T21:16:19.943Z,3.50
2018-03-26T21:19:23.275Z,3.50
2018-03-26T21:22:26.587Z,3.50
2018-03-26T21:25:29.914Z,3.50
2018-03-26T21:28:33.232Z,3.40
2018-03-26T21:31:36.562Z,3.30
2018-03-26T21:34:39.889Z,3.30
2018-03-26T21:37:43.237Z,3.40
2018-03-26T21:40:46.575Z,3.40
2018-03-26T21:43:49.921Z,3.40
2018-03-26T21:46:54.021Z,3.40
2018-03-26T21:49:57.384Z,3.40
2018-03-26T21:53:00.699Z,3.40
2018-03-26T21:56:04.037Z,3.40
2018-03-26T21:59:07.355Z,3.40
2018-03-26T22:02:10.688Z,3.40
2018-03-26T22:05:14.001Z,3.40
2018-03-26T22:08:17.332Z,3.40
2018-03-26T22:11:20.654Z,3.40
2018-03-26T22:14:23.970Z,3.40
2018-03-26T22:17:27.302Z,3.30
2018-03-26T22:20:30.619Z,3.40
2018-03-26T22:23:33.952Z,3.30
2018-03-26T22:26:37.279Z,3.40
2018-03-26T22:29:40.613Z,3.40
2018-03-26T22:32:43.962Z,3.30
2018-03-26T22:35:47.295Z,3.40
2018-03-26T22:38:50.632Z,3.30
2018-03-26T22:41:53.989Z,3.30
2018-03-26T22:44:57.306Z,3.30
2018-03-26T22:48:00.661Z,3.30
2018-03-26T22:51:04.741Z,3.20
2018-03-26T22:54:08.085Z,3.20
2018-03-26T22:57:11.439Z,3.20
2018-03-26T23:00:14.770Z,3.20
2018-03-26T23:03:18.864Z,3.10
2018-03-26T23:06:22.196Z,3.10
2018-03-26T23:09:25.558Z,3.20
2018-03-26T23:12:28.875Z,3.20
2018-03-26T23:15:32.211Z,3.20
2018-03-26T23:18:35.551Z,3.20
2018-03-26T23:21:38.890Z,3.20
2018-03-26T23:24:42.198Z,3.10
2018-03-26T23:27:45.531Z,3.20
2018-03-26T23:30:48.874Z,3.20
2018-03-26T23:33:52.227Z,3.10
2018-03-26T23:36:55.566Z,3.10
2018-03-26T23:39:58.999Z,3.10
2018-03-26T23:43:02.316Z,3.10
2018-03-26T23:46:05.652Z,3.10
2018-03-26T23:49:09.791Z,3.10
2018-03-26T23:52:13.129Z,3.00
2018-03-26T23:55:16.439Z,3.10
2018-03-26T23:58:19.781Z,3.10
